< < Back
Terminal Aerodrome Forecast


Current Version              Previous Versions:   1  2  3  4  5  6  7  8  9  

Terminal Aerodrome Forecast

518
FTUS42 KGSP 241159 CCA
TAFAND
TAF COR
KAND 241159Z 2412/2512 09003KT P6SM VCSH SCT029 BKN035
      TEMPO 2412/2414 SCT019 BKN029
     FM241600 13004KT P6SM SCT025 BKN035
     FM241800 17004KT P6SM BKN045
     FM242300 11004KT P6SM BKN050
     FM250000 10003KT P6SM SCT050=



Latest METAR

060
SAUS70 KWBC 241600 RRF
MTRAND
METAR KAND 241556Z AUTO 00000KT 10SM OVC065 24/22 A3032 RMK AO2 RAE27
SLP256 P0001 T02440222


USA.gov is the U.S. government's official web portal to all federal, state and local government web resources and services.